Livingston Manor, NY (12758)

4:21 PM EST on February 13, 2016 (GMT -0500)
Sullivan County International | | Change Station
CLOSE
Current Station
Airport
Location: Monticello,
Elevation: 1404 ft
Nearby Weather Stations

Elev 1404 ft 41.70 °N, 74.80 °W | Updated 6 minutes ago

Mostly Cloudy
Mostly Cloudy
-2 °F
Feels Like -25 °F
N
20
Wind Variable Wind from NW
Gusts 24 mph

Today
High -- | Low -- °F
--% Chance of Precip.
Yesterday
High -- | Low -- °F
Precip. -- in
Pressure 30.08 in
Visibility 10.0 miles
Clouds Few 2500 ft
Overcast 3300 ft
Windchill -25 °F
Dew Point -15 °F
Humidity 55%
Rainfall 0.00 in
Snow Depth Not available.
6:57 AM 5:28 PM
Waxing Crescent, 34% visible
METAR KMSV 132115Z AUTO 31017G21KT 10SM FEW025 OVC033 M19/M26 A3008 RMK AO1
Pressure 30.08 in
Visibility 10.0 miles
Clouds Few 2500 ft
Overcast 3300 ft
Windchill -25 °F
Dew Point -15 °F
Humidity 55%
Rainfall 0.00 in
Snow Depth Not available.
6:57 AM 5:28 PM
Waxing Crescent, 34% visible
METAR KMSV 132115Z AUTO 31017G21KT 10SM FEW025 OVC033 M19/M26 A3008 RMK AO1

10-Day Weather Forecast

Almanac

Astronomy

Feb. 13, 2016 Rise Set
Actual Time
Civil Twilight
Nautical Twilight
Astronomical Twilight
Moon
Length of Visible Light
Length of Day
Tomorrow will be .
, % of the Moon is Illuminated

Today's Extremes

State Highs State Lows

Community

WunderPhotos

Upload Photos

1,892,670 photos uploaded!

WunderBlog® & News

Nearby

Air Quality

  Air Quality AQ Index Pollutant
Not available.

Snow Depth

Station Depth Elevation

Earthquake Activity

City Distance Mag. Time & Date
Minimum magnitude displayed is 2.5.

Coastal Water Temperatures

Place Temperature

Stations

Nearby Weather Stations

Station Location Temp. Windchill Dew Point Humidity Wind Precip. Elev Updated Type
                   

Watches & Warnings

Wind Chill Warning
Issued: 2:29 PM EST Feb. 13, 2016 – National Weather Service

... Wind chill warning remains in effect until 1 PM EST Sunday...

* locations... southern Tug Hill... Mohawk Valley to the western
Catskills of New York.

* Hazard types... dangerously low wind chills and extreme cold.

* Timing... through Sunday morning.

* Impacts... potential for frostbite and hypothermia. The extreme
cold may also lead to pipes freezing.

* Wind chill readings... as low as 38 below. Lowest wind chill
values will be over the higher terrain.

* Winds... northwest 15 to 25 mph with gusts up to 35 mph.

* Temperatures... 17 below to 2 above zero.

Precautionary/preparedness actions...

A wind chill warning means the combination of very cold air and
strong winds will create dangerously low wind chill values. This
will result in frost bite and lead to hypothermia or death if
precautions are not taken.